createdAt,value
2022-12-31T00:01:00.399Z,62.90
2022-12-31T00:03:27.094Z,62.81
2022-12-31T00:05:53.791Z,62.79
2022-12-31T00:08:20.396Z,62.80
2022-12-31T00:10:47.160Z,62.67
2022-12-31T00:13:13.777Z,62.60
2022-12-31T00:15:41.398Z,62.57
2022-12-31T00:18:08.448Z,62.61
2022-12-31T00:20:34.998Z,62.61
2022-12-31T00:23:01.743Z,62.60
2022-12-31T00:25:28.322Z,62.31
2022-12-31T00:27:55.871Z,62.39
2022-12-31T00:30:22.425Z,62.37
2022-12-31T00:32:48.985Z,61.82
2022-12-31T00:35:15.550Z,62.17
2022-12-31T00:37:42.138Z,62.11
2022-12-31T00:40:09.170Z,62.31
2022-12-31T00:42:35.761Z,62.21
2022-12-31T00:45:02.326Z,62.27
2022-12-31T00:47:28.962Z,62.22
2022-12-31T00:49:55.491Z,62.26
2022-12-31T00:52:22.142Z,62.20
2022-12-31T00:54:48.725Z,62.16
2022-12-31T00:57:15.404Z,62.18
2022-12-31T00:59:41.944Z,62.25
2022-12-31T01:02:08.775Z,62.56
2022-12-31T01:04:35.456Z,62.24
2022-12-31T01:07:02.104Z,62.27
2022-12-31T01:09:28.664Z,62.20
2022-12-31T01:11:55.320Z,62.34
2022-12-31T01:14:21.958Z,62.37
2022-12-31T01:16:50.146Z,62.53
2022-12-31T01:19:18.330Z,62.50
2022-12-31T01:21:45.874Z,62.29
2022-12-31T01:24:12.777Z,62.72
2022-12-31T01:26:39.902Z,62.98
2022-12-31T01:29:07.056Z,63.02
2022-12-31T01:31:34.509Z,63.05
2022-12-31T01:34:01.233Z,63.04
2022-12-31T01:36:29.102Z,62.33
2022-12-31T01:38:56.389Z,61.26
2022-12-31T01:41:24.876Z,59.95
2022-12-31T01:43:54.538Z,59.95
2022-12-31T01:46:34.658Z,58.67
2022-12-31T01:49:13.489Z,59.08
2022-12-31T01:51:41.555Z,58.33
2022-12-31T01:54:09.364Z,58.39
2022-12-31T01:56:36.760Z,57.62
2022-12-31T01:59:06.556Z,57.42
2022-12-31T02:01:33.621Z,57.73
2022-12-31T02:04:02.416Z,58.19
2022-12-31T02:06:31.230Z,58.07
2022-12-31T02:08:58.382Z,58.00
2022-12-31T02:11:29.548Z,58.74
2022-12-31T02:13:58.950Z,58.25
2022-12-31T02:16:30.127Z,58.48
2022-12-31T02:19:00.400Z,58.70
2022-12-31T02:21:36.143Z,59.38
2022-12-31T02:24:21.587Z,59.04
2022-12-31T02:26:57.041Z,58.42
2022-12-31T02:29:48.198Z,58.85
2022-12-31T02:32:21.566Z,58.93
2022-12-31T02:34:52.598Z,58.49
2022-12-31T02:37:20.622Z,58.74
2022-12-31T02:39:47.550Z,59.04
2022-12-31T02:42:14.112Z,59.33
2022-12-31T02:44:41.984Z,59.70
2022-12-31T02:47:08.576Z,59.54
2022-12-31T02:49:47.181Z,59.84
2022-12-31T02:52:16.580Z,59.58
2022-12-31T02:54:58.906Z,59.80
2022-12-31T02:57:30.801Z,59.78
2022-12-31T03:00:17.795Z,59.87
2022-12-31T03:02:46.044Z,60.10
2022-12-31T03:05:13.832Z,60.46
2022-12-31T03:07:41.451Z,60.24
2022-12-31T03:10:08.271Z,59.82
2022-12-31T03:12:47.770Z,59.85
2022-12-31T03:15:24.835Z,59.58
2022-12-31T03:17:53.383Z,59.48
2022-12-31T03:20:39.128Z,59.73
2022-12-31T03:23:07.139Z,59.66
2022-12-31T03:25:34.675Z,59.42
2022-12-31T03:28:11.949Z,59.32
2022-12-31T03:30:39.791Z,59.30
2022-12-31T03:33:07.055Z,59.45
2022-12-31T03:35:34.829Z,59.58
2022-12-31T03:38:02.117Z,59.66
2022-12-31T03:40:29.364Z,59.78
2022-12-31T03:42:56.116Z,59.72
2022-12-31T03:45:22.895Z,59.71
2022-12-31T03:47:49.630Z,59.99
2022-12-31T03:50:17.327Z,59.93
2022-12-31T03:52:44.197Z,59.58
2022-12-31T03:55:11.232Z,59.78
2022-12-31T03:57:38.405Z,59.36
2022-12-31T04:00:06.448Z,58.99
2022-12-31T04:02:33.891Z,58.88
2022-12-31T04:05:00.802Z,58.42
2022-12-31T04:07:27.525Z,58.53
2022-12-31T04:09:54.168Z,58.92
2022-12-31T04:12:20.742Z,58.59
2022-12-31T04:14:47.351Z,58.73
2022-12-31T04:17:13.934Z,58.66
2022-12-31T04:19:40.537Z,58.69
2022-12-31T04:22:07.264Z,58.76
2022-12-31T04:24:34.146Z,58.84
2022-12-31T04:27:07.302Z,58.78
2022-12-31T04:29:34.786Z,58.75
2022-12-31T04:32:01.548Z,58.80
2022-12-31T04:34:28.261Z,58.88
2022-12-31T04:36:54.912Z,58.58
2022-12-31T04:39:21.765Z,58.58
2022-12-31T04:41:49.393Z,58.74
2022-12-31T04:44:16.046Z,58.73
2022-12-31T04:46:42.890Z,58.75
2022-12-31T04:49:10.118Z,58.88
2022-12-31T04:51:36.798Z,58.69
2022-12-31T04:54:03.638Z,58.46
2022-12-31T04:56:30.573Z,58.93
2022-12-31T04:58:57.166Z,58.06
2022-12-31T05:01:23.909Z,57.76
2022-12-31T05:03:51.418Z,57.53
2022-12-31T05:06:19.947Z,57.25
2022-12-31T05:08:46.957Z,57.00
2022-12-31T05:11:13.617Z,56.93
2022-12-31T05:13:40.310Z,56.62
2022-12-31T05:16:07.637Z,56.66
2022-12-31T05:18:34.258Z,57.09
2022-12-31T05:21:00.836Z,57.15
2022-12-31T05:23:28.033Z,57.39
2022-12-31T05:25:54.659Z,56.56
2022-12-31T05:28:21.578Z,56.24
2022-12-31T05:30:49.053Z,56.30
2022-12-31T05:33:15.788Z,55.90
2022-12-31T05:35:42.353Z,56.06
2022-12-31T05:38:09.011Z,55.14
2022-12-31T05:40:35.636Z,54.45
2022-12-31T05:43:02.285Z,54.59
2022-12-31T05:45:31.125Z,54.55
2022-12-31T05:47:58.465Z,54.55
2022-12-31T05:50:25.221Z,54.20
2022-12-31T05:52:55.859Z,54.08
2022-12-31T05:55:22.546Z,54.24
2022-12-31T05:57:49.186Z,54.17
2022-12-31T06:00:16.008Z,54.04
2022-12-31T06:02:42.624Z,53.64
2022-12-31T06:05:09.327Z,53.52
2022-12-31T06:07:35.926Z,53.17
2022-12-31T06:10:04.524Z,53.32
2022-12-31T06:12:31.094Z,53.25
2022-12-31T06:14:57.720Z,53.08
2022-12-31T06:17:24.640Z,52.62
2022-12-31T06:19:51.152Z,52.28
2022-12-31T06:22:17.889Z,52.19
2022-12-31T06:24:44.472Z,52.02
2022-12-31T06:27:11.399Z,52.12
2022-12-31T06:29:38.046Z,51.82
2022-12-31T06:32:04.843Z,51.90
2022-12-31T06:34:31.541Z,51.80
2022-12-31T06:36:59.140Z,51.49
2022-12-31T06:39:25.815Z,51.33
2022-12-31T06:41:52.426Z,51.29
2022-12-31T06:44:19.087Z,51.44
2022-12-31T06:46:45.816Z,51.25
2022-12-31T06:49:12.555Z,51.26
2022-12-31T06:51:39.247Z,51.27
2022-12-31T06:54:05.910Z,51.22
2022-12-31T06:56:34.804Z,51.38
2022-12-31T06:59:02.631Z,51.33
2022-12-31T07:01:47.846Z,51.38
2022-12-31T07:04:17.625Z,51.39
2022-12-31T07:06:48.734Z,51.42
2022-12-31T07:09:18.190Z,51.56
2022-12-31T07:11:56.704Z,51.98
2022-12-31T07:14:33.008Z,52.63
2022-12-31T07:17:17.608Z,53.21
2022-12-31T07:19:59.953Z,53.76
2022-12-31T07:22:26.717Z,54.35
2022-12-31T07:24:53.436Z,55.73
2022-12-31T07:27:35.358Z,54.74
2022-12-31T07:30:13.021Z,54.68
2022-12-31T07:32:42.510Z,54.72
2022-12-31T07:35:33.045Z,54.58
2022-12-31T07:38:01.768Z,54.76
2022-12-31T07:40:34.557Z,54.68
2022-12-31T07:43:03.945Z,54.73
2022-12-31T07:45:30.469Z,55.25
2022-12-31T07:48:02.279Z,57.23
2022-12-31T07:50:29.715Z,55.60
2022-12-31T07:52:56.378Z,56.13
2022-12-31T07:55:22.962Z,55.77
2022-12-31T07:57:58.692Z,56.47
2022-12-31T08:00:26.047Z,56.29
2022-12-31T08:02:59.641Z,56.13
2022-12-31T08:05:26.241Z,56.46
2022-12-31T08:07:55.882Z,56.40
2022-12-31T08:10:28.016Z,55.33
2022-12-31T08:13:01.778Z,55.54
2022-12-31T08:15:30.597Z,55.12
2022-12-31T08:17:57.679Z,54.69
2022-12-31T08:20:25.448Z,54.41
2022-12-31T08:23:12.369Z,54.04
2022-12-31T08:25:42.114Z,54.91
2022-12-31T08:28:38.200Z,54.03
2022-12-31T08:31:12.039Z,53.88
2022-12-31T08:33:48.793Z,53.43
2022-12-31T08:36:32.891Z,52.90
2022-12-31T08:39:08.488Z,53.09
2022-12-31T08:41:44.081Z,53.05
2022-12-31T08:44:19.587Z,52.92
2022-12-31T08:46:54.521Z,52.52
2022-12-31T08:49:21.264Z,52.93
2022-12-31T08:51:47.977Z,52.10
2022-12-31T08:54:14.743Z,52.08
2022-12-31T08:56:44.764Z,52.05
2022-12-31T08:59:22.949Z,52.58
2022-12-31T09:02:01.580Z,52.27
2022-12-31T09:04:34.179Z,52.19
2022-12-31T09:07:02.334Z,52.14
2022-12-31T09:09:28.911Z,52.26
2022-12-31T09:12:13.985Z,52.21
2022-12-31T09:14:43.155Z,51.96
2022-12-31T09:17:29.976Z,51.56
2022-12-31T09:19:56.742Z,51.68
2022-12-31T09:22:23.556Z,51.32
2022-12-31T09:24:50.363Z,51.52
2022-12-31T09:27:28.014Z,50.89
2022-12-31T09:30:00.899Z,50.09
2022-12-31T09:32:41.732Z,50.19
2022-12-31T09:35:21.563Z,50.30
2022-12-31T09:37:49.616Z,50.30
2022-12-31T09:40:16.255Z,49.63
2022-12-31T09:42:48.601Z,49.48
2022-12-31T09:45:24.115Z,48.87
2022-12-31T09:48:07.558Z,49.08
2022-12-31T09:50:34.100Z,48.69
2022-12-31T09:53:19.469Z,48.92
2022-12-31T09:55:49.121Z,48.95
2022-12-31T09:58:24.887Z,48.61
2022-12-31T10:01:10.215Z,49.42
2022-12-31T10:03:39.904Z,48.88
2022-12-31T10:06:27.784Z,48.57
2022-12-31T10:08:54.360Z,48.80
2022-12-31T10:11:26.673Z,46.42
2022-12-31T10:14:05.510Z,46.77
2022-12-31T10:16:32.148Z,46.41
2022-12-31T10:19:04.940Z,47.24
2022-12-31T10:21:31.484Z,46.44
2022-12-31T10:24:16.739Z,46.12
2022-12-31T10:26:59.409Z,46.08
2022-12-31T10:29:54.911Z,45.45
2022-12-31T10:32:31.554Z,45.54
2022-12-31T10:35:12.781Z,45.37
2022-12-31T10:37:59.668Z,44.99
2022-12-31T10:40:29.418Z,45.14
2022-12-31T10:43:04.803Z,44.34
2022-12-31T10:45:31.365Z,43.82
2022-12-31T10:48:13.258Z,44.99
2022-12-31T10:50:48.758Z,43.28
2022-12-31T10:53:25.099Z,43.19
2022-12-31T10:55:57.602Z,43.24
2022-12-31T10:58:42.828Z,42.67
2022-12-31T11:01:27.914Z,42.64
2022-12-31T11:04:00.610Z,42.71
2022-12-31T11:06:30.227Z,42.44
2022-12-31T11:09:15.295Z,42.43
2022-12-31T11:11:51.041Z,42.25
2022-12-31T11:14:19.493Z,42.07
2022-12-31T11:16:52.122Z,41.49
2022-12-31T11:19:27.594Z,41.53
2022-12-31T11:22:00.485Z,41.53
2022-12-31T11:24:27.099Z,42.15
2022-12-31T11:27:09.099Z,41.69
2022-12-31T11:29:43.586Z,44.92
2022-12-31T11:32:13.188Z,45.66
2022-12-31T11:34:48.520Z,45.97
2022-12-31T11:37:33.680Z,45.72
2022-12-31T11:40:00.275Z,46.12
2022-12-31T11:42:29.834Z,45.95
2022-12-31T11:45:15.056Z,45.59
2022-12-31T11:48:20.174Z,45.50
2022-12-31T11:50:28.221Z,44.81
2022-12-31T11:53:14.453Z,44.85
2022-12-31T11:55:50.229Z,44.05
2022-12-31T11:58:20.763Z,45.82
2022-12-31T12:00:54.376Z,47.62
2022-12-31T12:03:21.260Z,45.14
2022-12-31T12:05:47.809Z,44.44
2022-12-31T12:08:14.579Z,45.30
2022-12-31T12:10:44.270Z,44.16
2022-12-31T12:13:12.740Z,44.22
2022-12-31T12:15:40.297Z,43.81
2022-12-31T12:18:09.149Z,43.80
2022-12-31T12:20:36.935Z,44.07
2022-12-31T12:23:13.603Z,44.57
2022-12-31T12:25:41.555Z,43.76
2022-12-31T12:28:20.582Z,43.18
2022-12-31T12:30:52.883Z,43.59
2022-12-31T12:33:19.856Z,42.13
2022-12-31T12:35:47.142Z,42.98
2022-12-31T12:38:15.404Z,41.78
2022-12-31T12:40:42.030Z,41.93
2022-12-31T12:43:21.933Z,42.23
2022-12-31T12:45:52.088Z,42.81
2022-12-31T12:48:21.790Z,47.04
2022-12-31T12:50:49.253Z,43.42
2022-12-31T12:53:18.621Z,42.78
2022-12-31T12:55:47.962Z,47.18
2022-12-31T12:58:23.690Z,49.70
2022-12-31T13:01:13.800Z,48.03
2022-12-31T13:03:59.936Z,45.26
2022-12-31T13:06:46.282Z,44.51
2022-12-31T13:09:31.422Z,44.15
2022-12-31T13:12:07.727Z,44.55
2022-12-31T13:14:44.245Z,44.44
2022-12-31T13:17:19.753Z,45.05
2022-12-31T13:20:06.628Z,45.14
2022-12-31T13:22:45.314Z,45.62
2022-12-31T13:25:27.441Z,46.64
2022-12-31T13:27:56.546Z,47.61
2022-12-31T13:30:30.838Z,48.01
2022-12-31T13:32:57.501Z,46.84
2022-12-31T13:35:34.853Z,46.47
2022-12-31T13:38:26.796Z,46.20
2022-12-31T13:41:00.895Z,46.65
2022-12-31T13:43:48.831Z,46.45
2022-12-31T13:46:26.427Z,46.47
2022-12-31T13:49:04.316Z,45.25
2022-12-31T13:51:34.007Z,45.55
2022-12-31T13:54:14.806Z,45.85
2022-12-31T13:56:42.738Z,46.20
2022-12-31T13:59:23.856Z,46.21
2022-12-31T14:02:00.681Z,46.49
2022-12-31T14:04:27.431Z,46.76
2022-12-31T14:07:00.329Z,46.68
2022-12-31T14:09:29.200Z,46.55
2022-12-31T14:12:14.342Z,46.45
2022-12-31T14:14:42.403Z,46.18
2022-12-31T14:17:27.580Z,46.02
2022-12-31T14:20:16.025Z,45.97
2022-12-31T14:22:59.485Z,45.02
2022-12-31T14:25:26.480Z,45.38
2022-12-31T14:27:55.198Z,44.70
2022-12-31T14:30:28.309Z,43.92
2022-12-31T14:33:01.629Z,43.59
2022-12-31T14:35:46.941Z,43.81
2022-12-31T14:38:16.719Z,43.36
2022-12-31T14:40:49.200Z,43.26
2022-12-31T14:43:15.870Z,43.35
2022-12-31T14:45:54.902Z,43.22
2022-12-31T14:48:40.345Z,43.50
2022-12-31T14:51:07.284Z,43.64
2022-12-31T14:53:33.916Z,43.39
2022-12-31T14:56:05.322Z,43.67
2022-12-31T14:58:34.744Z,43.35
2022-12-31T15:01:04.501Z,42.65
2022-12-31T15:03:31.144Z,42.68
2022-12-31T15:06:16.265Z,42.79
2022-12-31T15:08:49.282Z,43.26
2022-12-31T15:11:35.294Z,42.91
2022-12-31T15:14:20.460Z,43.22
2022-12-31T15:17:13.247Z,42.89
2022-12-31T15:20:11.437Z,42.93
2022-12-31T15:22:46.004Z,43.08
2022-12-31T15:25:21.627Z,42.67
2022-12-31T15:27:48.568Z,42.98
2022-12-31T15:30:34.079Z,42.96
2022-12-31T15:33:02.431Z,43.04
2022-12-31T15:35:43.564Z,43.33
2022-12-31T15:38:10.173Z,43.51
2022-12-31T15:40:50.698Z,43.71
2022-12-31T15:43:17.356Z,43.80
2022-12-31T15:45:44.169Z,43.96
2022-12-31T15:48:34.224Z,44.07
2022-12-31T15:51:01.274Z,44.19
2022-12-31T15:53:36.072Z,44.22
2022-12-31T15:56:03.174Z,44.65
2022-12-31T15:58:35.965Z,44.62
2022-12-31T16:01:09.875Z,44.72
2022-12-31T16:03:37.091Z,44.72
2022-12-31T16:06:08.519Z,44.91
2022-12-31T16:08:35.886Z,44.99
2022-12-31T16:11:07.018Z,45.08
2022-12-31T16:13:35.316Z,45.05
2022-12-31T16:16:03.405Z,45.39
2022-12-31T16:18:40.072Z,45.25
2022-12-31T16:21:22.411Z,45.56
2022-12-31T16:23:53.013Z,45.72
2022-12-31T16:26:20.024Z,46.57
2022-12-31T16:28:49.447Z,47.38
2022-12-31T16:31:22.721Z,47.61
2022-12-31T16:33:50.352Z,47.82
2022-12-31T16:36:23.571Z,47.50
2022-12-31T16:38:50.306Z,46.87
2022-12-31T16:41:19.009Z,46.89
2022-12-31T16:43:49.647Z,47.23
2022-12-31T16:46:25.512Z,47.75
2022-12-31T16:48:57.027Z,47.88
2022-12-31T16:51:28.997Z,48.03
2022-12-31T16:53:56.123Z,48.28
2022-12-31T16:56:24.843Z,48.41
2022-12-31T16:58:54.605Z,48.65
2022-12-31T17:01:25.012Z,49.04
2022-12-31T17:03:53.688Z,49.24
2022-12-31T17:06:20.849Z,49.53
2022-12-31T17:08:50.120Z,49.98
2022-12-31T17:11:23.191Z,50.59
2022-12-31T17:14:10.465Z,51.11
2022-12-31T17:16:38.615Z,52.15
2022-12-31T17:19:05.156Z,53.24
2022-12-31T17:21:32.461Z,53.64
2022-12-31T17:24:04.469Z,54.68
2022-12-31T17:26:32.493Z,55.36
2022-12-31T17:29:00.359Z,55.88
2022-12-31T17:31:34.717Z,56.50
2022-12-31T17:34:21.461Z,57.58
2022-12-31T17:37:00.082Z,57.86
2022-12-31T17:39:38.719Z,58.48
2022-12-31T17:42:05.510Z,59.07
2022-12-31T17:44:34.110Z,59.39
2022-12-31T17:47:02.484Z,59.48
2022-12-31T17:49:30.835Z,59.76
2022-12-31T17:51:57.636Z,60.04
2022-12-31T17:54:24.264Z,60.75
2022-12-31T17:56:51.913Z,60.97
2022-12-31T17:59:20.909Z,61.81
2022-12-31T18:01:47.782Z,62.10
2022-12-31T18:04:16.080Z,61.99
2022-12-31T18:06:43.116Z,62.31
2022-12-31T18:09:09.885Z,62.86
2022-12-31T18:11:37.722Z,63.06
2022-12-31T18:14:04.440Z,63.11
2022-12-31T18:16:31.084Z,63.17
2022-12-31T18:18:59.018Z,63.21
2022-12-31T18:21:28.690Z,63.41
2022-12-31T18:26:22.142Z,63.76
2022-12-31T18:28:48.875Z,63.82
2022-12-31T18:31:26.510Z,63.96
2022-12-31T18:33:53.896Z,64.06
2022-12-31T18:36:21.697Z,64.40
2022-12-31T18:38:48.526Z,64.32
2022-12-31T18:41:19.829Z,64.73
2022-12-31T18:43:46.799Z,65.12
2022-12-31T18:46:14.323Z,65.30
2022-12-31T18:48:41.539Z,65.44
2022-12-31T18:51:15.206Z,65.73
2022-12-31T18:53:41.883Z,66.02
2022-12-31T18:56:12.950Z,66.22
2022-12-31T18:58:39.737Z,66.81
2022-12-31T19:01:09.810Z,67.35
2022-12-31T19:03:36.485Z,67.62
2022-12-31T19:06:03.078Z,67.95
2022-12-31T19:08:29.705Z,68.36
2022-12-31T19:10:56.290Z,68.41
2022-12-31T19:13:23.363Z,68.29
2022-12-31T19:15:51.135Z,69.46
2022-12-31T19:18:17.732Z,68.47
2022-12-31T19:20:44.548Z,68.47
2022-12-31T19:23:19.448Z,68.63
2022-12-31T19:25:47.040Z,68.90
2022-12-31T19:28:15.908Z,68.89
2022-12-31T19:30:42.613Z,68.85
2022-12-31T19:33:09.188Z,68.97
2022-12-31T19:35:35.921Z,69.22
2022-12-31T19:38:02.799Z,69.46
2022-12-31T19:40:30.653Z,69.09
2022-12-31T19:42:57.855Z,68.99
2022-12-31T19:45:26.226Z,69.11
2022-12-31T19:47:53.587Z,68.73
2022-12-31T19:50:22.120Z,68.69
2022-12-31T19:52:49.646Z,68.86
2022-12-31T19:55:18.668Z,68.89
2022-12-31T19:57:45.517Z,68.95
2022-12-31T20:00:14.324Z,69.00
2022-12-31T20:02:41.631Z,68.91
2022-12-31T20:05:08.592Z,68.83
2022-12-31T20:07:35.184Z,68.92
2022-12-31T20:10:01.960Z,69.04
2022-12-31T20:12:28.644Z,69.17
2022-12-31T20:14:55.441Z,68.85
2022-12-31T20:17:22.173Z,68.03
2022-12-31T20:19:48.807Z,66.41
2022-12-31T20:22:15.329Z,65.60
2022-12-31T20:24:41.963Z,64.98
2022-12-31T20:27:10.976Z,64.42
2022-12-31T20:29:41.596Z,64.20
2022-12-31T20:32:09.701Z,64.17
2022-12-31T20:34:36.367Z,64.17
2022-12-31T20:37:02.934Z,64.17
2022-12-31T20:39:29.529Z,64.32
2022-12-31T20:41:56.139Z,63.91
2022-12-31T20:44:22.792Z,63.46
2022-12-31T20:46:49.445Z,63.12
2022-12-31T20:49:16.060Z,62.55
2022-12-31T20:51:45.019Z,61.76
2022-12-31T20:54:15.517Z,61.75
2022-12-31T20:56:42.112Z,61.12
2022-12-31T20:59:09.437Z,60.72
2022-12-31T21:02:11.809Z,60.36
2022-12-31T21:04:23.218Z,60.31
2022-12-31T21:06:49.914Z,60.60
2022-12-31T21:09:16.501Z,60.50
2022-12-31T21:12:01.551Z,60.44
2022-12-31T21:14:28.125Z,60.17
2022-12-31T21:16:54.661Z,60.60
2022-12-31T21:19:21.278Z,60.42
2022-12-31T21:21:48.338Z,60.57
2022-12-31T21:24:20.194Z,60.78
2022-12-31T21:26:50.040Z,60.94
2022-12-31T21:29:16.600Z,60.71
2022-12-31T21:31:43.224Z,61.03
2022-12-31T21:34:10.035Z,61.14
2022-12-31T21:36:36.671Z,61.10
2022-12-31T21:39:03.683Z,61.18
2022-12-31T21:41:48.976Z,61.34
2022-12-31T21:44:15.608Z,61.43
2022-12-31T21:47:00.799Z,61.42
2022-12-31T21:49:28.747Z,61.74
2022-12-31T21:52:13.705Z,61.97
2022-12-31T21:54:59.098Z,61.77
2022-12-31T21:57:25.678Z,62.52
2022-12-31T22:00:40.485Z,62.77
2022-12-31T22:03:16.211Z,63.15
2022-12-31T22:05:50.852Z,63.55
2022-12-31T22:08:17.712Z,63.70
2022-12-31T22:10:51.966Z,63.21
2022-12-31T22:13:20.076Z,62.86
2022-12-31T22:15:47.546Z,62.74
2022-12-31T22:18:14.889Z,62.97
2022-12-31T22:20:41.739Z,62.81
2022-12-31T22:23:08.321Z,62.31
2022-12-31T22:25:35.354Z,62.18
2022-12-31T22:28:36.645Z,61.70
2022-12-31T22:30:49.500Z,61.80
2022-12-31T22:33:16.081Z,61.80
2022-12-31T22:35:42.672Z,61.25
2022-12-31T22:38:12.132Z,60.97
2022-12-31T22:40:39.369Z,60.76
2022-12-31T22:43:05.944Z,60.83
2022-12-31T22:45:32.574Z,61.53
2022-12-31T22:47:59.096Z,61.49
2022-12-31T22:50:25.718Z,61.41
2022-12-31T22:52:52.309Z,61.24
2022-12-31T22:55:18.932Z,60.54
2022-12-31T22:57:45.486Z,60.76
2022-12-31T23:00:13.285Z,60.52
2022-12-31T23:02:41.943Z,61.12
2022-12-31T23:05:15.514Z,60.91
2022-12-31T23:07:43.130Z,60.82
2022-12-31T23:10:29.010Z,60.72
2022-12-31T23:12:55.605Z,61.01
2022-12-31T23:15:40.601Z,60.91
2022-12-31T23:18:25.616Z,60.96
2022-12-31T23:21:10.953Z,60.59
2022-12-31T23:23:37.578Z,60.09
2022-12-31T23:26:04.156Z,59.66
2022-12-31T23:28:30.769Z,59.81
2022-12-31T23:30:57.385Z,59.83
2022-12-31T23:33:25.202Z,60.10
2022-12-31T23:36:01.405Z,59.48
2022-12-31T23:38:28.035Z,59.55
2022-12-31T23:40:54.598Z,59.48
2022-12-31T23:43:22.304Z,59.94
2022-12-31T23:45:50.404Z,59.32
2022-12-31T23:48:17.057Z,58.97
2022-12-31T23:50:47.709Z,58.91
2022-12-31T23:53:17.550Z,59.62
2022-12-31T23:55:44.116Z,59.87
2022-12-31T23:58:10.701Z,59.46
